createdAt,value
2024-01-06T00:03:00.913Z,5.15
2024-01-06T00:07:57.811Z,4.65
2024-01-06T00:12:54.668Z,5.93
2024-01-06T00:17:51.616Z,6.28
2024-01-06T00:22:48.524Z,5.32
2024-01-06T00:27:45.369Z,5.63
2024-01-06T00:32:42.270Z,6.07
2024-01-06T00:37:39.107Z,6.68
2024-01-06T00:42:37.497Z,7.43
2024-01-06T00:47:34.345Z,7.28
2024-01-06T00:52:31.271Z,6.45
2024-01-06T00:57:28.196Z,7.13
2024-01-06T01:02:25.283Z,7.38
2024-01-06T01:07:22.157Z,6.97
2024-01-06T01:12:19.230Z,6.43
2024-01-06T01:17:16.131Z,6.78
2024-01-06T01:22:13.171Z,7.00
2024-01-06T01:27:10.282Z,7.28
2024-01-06T01:32:07.715Z,6.75
2024-01-06T01:37:04.986Z,6.72
2024-01-06T01:42:02.042Z,7.13
2024-01-06T01:46:59.635Z,8.45
2024-01-06T01:51:56.571Z,7.35
2024-01-06T01:56:56.172Z,7.63
2024-01-06T02:01:53.084Z,8.55
2024-01-06T02:06:51.874Z,8.38
2024-01-06T02:11:48.867Z,7.50
2024-01-06T02:16:45.796Z,8.05
2024-01-06T02:21:43.883Z,7.85
2024-01-06T02:26:40.705Z,7.68
2024-01-06T02:31:37.615Z,7.63
2024-01-06T02:36:34.576Z,7.13
2024-01-06T02:41:31.458Z,7.30
2024-01-06T02:46:28.266Z,7.35
2024-01-06T02:51:25.075Z,7.95
2024-01-06T02:56:21.941Z,7.80
2024-01-06T03:01:19.168Z,6.53
2024-01-06T03:06:16.055Z,6.68
2024-01-06T03:11:13.979Z,6.43
2024-01-06T03:16:13.031Z,6.20
2024-01-06T03:21:22.793Z,6.45
2024-01-06T03:26:19.660Z,5.60
2024-01-06T03:31:17.908Z,6.40
2024-01-06T03:36:17.074Z,6.85
2024-01-06T03:41:13.887Z,6.63
2024-01-06T03:46:10.897Z,7.38
2024-01-06T03:51:08.886Z,6.95
2024-01-06T03:56:06.064Z,7.35
2024-01-06T04:01:03.114Z,7.35
2024-01-06T04:06:00.010Z,7.47
2024-01-06T04:10:56.862Z,7.45
2024-01-06T04:15:53.720Z,6.97
2024-01-06T04:20:50.525Z,6.03
2024-01-06T04:25:47.301Z,6.85
2024-01-06T04:30:44.185Z,6.90
2024-01-06T04:35:41.055Z,6.57
2024-01-06T04:40:37.918Z,7.00
2024-01-06T04:45:34.759Z,7.47
2024-01-06T04:50:31.707Z,6.07
2024-01-06T04:55:28.552Z,6.75
2024-01-06T05:00:27.327Z,6.65
2024-01-06T05:05:25.435Z,6.53
2024-01-06T05:10:22.214Z,6.15
2024-01-06T05:15:19.266Z,5.78
2024-01-06T05:20:16.805Z,6.85
2024-01-06T05:25:13.599Z,5.45
2024-01-06T05:30:11.005Z,6.72
2024-01-06T05:35:09.286Z,5.07
2024-01-06T05:40:09.597Z,6.55
2024-01-06T05:45:06.866Z,4.55
2024-01-06T05:50:03.718Z,4.85
2024-01-06T05:55:00.709Z,4.85
2024-01-06T05:59:57.551Z,5.30
2024-01-06T06:04:54.780Z,5.50
2024-01-06T06:09:51.742Z,4.80
2024-01-06T06:14:48.590Z,4.45
2024-01-06T06:19:45.479Z,3.33
2024-01-06T06:24:42.356Z,3.38
2024-01-06T06:29:39.643Z,3.38
2024-01-06T06:34:36.511Z,4.63
2024-01-06T06:39:35.820Z,3.03
2024-01-06T06:44:32.648Z,3.63
2024-01-06T06:49:29.498Z,3.45
2024-01-06T06:54:26.569Z,3.08
2024-01-06T06:59:23.350Z,3.65
2024-01-06T07:04:20.188Z,3.78
2024-01-06T07:09:16.977Z,3.13
2024-01-06T07:14:13.760Z,2.95
2024-01-06T07:19:10.871Z,2.35
2024-01-06T07:24:07.868Z,2.33
2024-01-06T07:29:04.643Z,2.53
2024-01-06T07:34:01.595Z,2.28
2024-01-06T07:38:58.555Z,2.00
2024-01-06T07:43:55.783Z,2.67
2024-01-06T07:48:52.788Z,2.38
2024-01-06T07:53:49.641Z,2.20
2024-01-06T07:58:46.549Z,2.30
2024-01-06T08:03:45.835Z,2.38
2024-01-06T08:08:42.812Z,1.98
2024-01-06T08:13:39.634Z,2.42
2024-01-06T08:18:36.669Z,2.08
2024-01-06T08:23:33.554Z,1.88
2024-01-06T08:28:30.389Z,2.42
2024-01-06T08:33:27.381Z,2.33
2024-01-06T08:38:24.547Z,2.30
2024-01-06T08:43:21.756Z,2.92
2024-01-06T08:48:19.833Z,2.25
2024-01-06T08:53:17.039Z,2.75
2024-01-06T08:58:13.913Z,2.63
2024-01-06T09:03:11.614Z,2.47
2024-01-06T09:08:08.472Z,2.20
2024-01-06T09:13:05.959Z,2.67
2024-01-06T09:18:04.133Z,2.67
2024-01-06T09:23:00.979Z,2.88
2024-01-06T09:27:58.143Z,2.90
2024-01-06T09:32:54.969Z,2.60
2024-01-06T09:37:52.102Z,2.38
2024-01-06T09:42:53.300Z,2.35
2024-01-06T09:47:52.106Z,2.38
2024-01-06T09:52:57.518Z,2.42
2024-01-06T09:57:55.411Z,2.65
2024-01-06T10:02:52.631Z,2.47
2024-01-06T10:07:49.643Z,1.80
2024-01-06T10:12:47.649Z,1.90
2024-01-06T10:17:45.065Z,2.00
2024-01-06T10:22:43.304Z,1.70
2024-01-06T10:27:42.315Z,2.25
2024-01-06T10:32:40.927Z,1.50
2024-01-06T10:37:39.358Z,2.00
2024-01-06T10:42:37.666Z,2.22
2024-01-06T10:47:36.919Z,1.90
2024-01-06T10:52:33.943Z,1.73
2024-01-06T10:57:33.605Z,1.42
2024-01-06T11:02:32.358Z,1.70
2024-01-06T11:07:30.290Z,1.40
2024-01-06T11:12:28.135Z,1.25
2024-01-06T11:17:50.159Z,2.22
2024-01-06T11:22:47.149Z,2.50
2024-01-06T11:27:46.614Z,2.90
2024-01-06T11:32:44.181Z,1.92
2024-01-06T11:37:40.904Z,1.77
2024-01-06T11:42:37.909Z,2.22
2024-01-06T11:47:36.108Z,2.60
2024-01-06T11:52:35.086Z,2.08
2024-01-06T11:57:31.998Z,2.90
2024-01-06T12:02:28.893Z,2.83
2024-01-06T12:07:25.888Z,2.33
2024-01-06T12:12:22.854Z,2.92
2024-01-06T12:17:22.504Z,2.30
2024-01-06T12:22:19.307Z,2.13
2024-01-06T12:27:16.277Z,2.47
2024-01-06T12:32:14.845Z,2.42
2024-01-06T12:37:14.491Z,2.47
2024-01-06T12:42:11.374Z,2.17
2024-01-06T12:47:08.274Z,2.63
2024-01-06T12:52:05.362Z,2.00
2024-01-06T12:57:02.379Z,2.13
2024-01-06T13:01:59.326Z,2.42
2024-01-06T13:07:03.050Z,2.25
2024-01-06T13:12:01.843Z,2.03
2024-01-06T13:16:58.741Z,2.30
2024-01-06T13:21:55.657Z,2.33
2024-01-06T13:26:52.499Z,1.63
2024-01-06T13:31:49.573Z,2.40
2024-01-06T13:36:47.309Z,2.03
2024-01-06T13:41:44.901Z,2.20
2024-01-06T13:46:46.277Z,2.63
2024-01-06T13:51:44.020Z,2.53
2024-01-06T13:56:40.899Z,2.60
2024-01-06T14:01:37.913Z,2.22
2024-01-06T14:06:35.285Z,2.60
2024-01-06T14:11:32.281Z,2.33
2024-01-06T14:16:29.172Z,2.55
2024-01-06T14:21:26.022Z,2.20
2024-01-06T14:26:23.118Z,1.92
2024-01-06T14:31:20.139Z,2.42
2024-01-06T14:36:17.063Z,2.30
2024-01-06T14:41:14.202Z,2.15
2024-01-06T14:46:11.147Z,2.38
2024-01-06T14:51:08.224Z,1.90
2024-01-06T14:56:05.780Z,2.00
2024-01-06T15:01:02.778Z,1.73
2024-01-06T15:05:59.842Z,1.65
2024-01-06T15:10:57.253Z,2.17
2024-01-06T15:15:56.142Z,2.00
2024-01-06T15:20:53.210Z,1.70
2024-01-06T15:25:49.980Z,2.28
2024-01-06T15:30:46.854Z,1.90
2024-01-06T15:35:43.856Z,2.20
2024-01-06T15:40:40.864Z,1.80
2024-01-06T15:45:37.682Z,1.95
2024-01-06T15:50:34.452Z,1.83
2024-01-06T15:55:31.226Z,1.75
2024-01-06T16:00:28.136Z,1.13
2024-01-06T16:05:25.181Z,1.13
2024-01-06T16:10:23.042Z,1.00
2024-01-06T16:15:21.704Z,1.70
2024-01-06T16:20:18.607Z,1.48
2024-01-06T16:25:16.455Z,1.77
2024-01-06T16:30:14.395Z,1.55
2024-01-06T16:35:12.807Z,1.60
2024-01-06T16:40:12.009Z,1.50
2024-01-06T16:45:09.423Z,2.70
2024-01-06T16:50:06.870Z,6.15
2024-01-06T16:55:04.084Z,21.98
2024-01-06T17:00:02.543Z,17.95
2024-01-06T17:04:59.699Z,12.18
2024-01-06T17:10:00.601Z,7.68
2024-01-06T17:14:57.622Z,24.92
2024-01-06T17:19:54.852Z,10.93
2024-01-06T17:24:52.204Z,6.55
2024-01-06T17:29:49.029Z,5.80
2024-01-06T17:34:47.341Z,12.32
2024-01-06T17:39:44.176Z,13.70
2024-01-06T17:44:45.898Z,8.93
2024-01-06T17:49:42.956Z,8.77
2024-01-06T17:54:39.868Z,6.28
2024-01-06T17:59:36.826Z,5.82
2024-01-06T18:04:33.762Z,5.88
2024-01-06T18:09:30.791Z,6.80
2024-01-06T18:14:36.308Z,6.28
2024-01-06T18:19:33.373Z,6.28
2024-01-06T18:24:31.594Z,4.68
2024-01-06T18:29:28.436Z,3.22
2024-01-06T18:34:25.368Z,2.47
2024-01-06T18:39:22.298Z,2.30
2024-01-06T18:44:19.903Z,2.47
2024-01-06T18:49:17.448Z,4.38
2024-01-06T18:54:22.766Z,4.65
2024-01-06T18:59:24.121Z,4.85
2024-01-06T19:04:20.929Z,3.55
2024-01-06T19:09:17.759Z,3.97
2024-01-06T19:14:14.554Z,3.83
2024-01-06T19:19:11.561Z,3.88
2024-01-06T19:24:08.549Z,3.15
2024-01-06T19:29:05.669Z,4.10
2024-01-06T19:34:02.591Z,5.10
2024-01-06T19:38:59.434Z,3.35
2024-01-06T19:43:57.505Z,3.53
2024-01-06T19:48:55.289Z,3.30
2024-01-06T19:53:53.057Z,3.42
2024-01-06T19:58:50.121Z,3.30
2024-01-06T20:03:47.077Z,3.30
2024-01-06T20:08:43.945Z,2.78
2024-01-06T20:13:41.183Z,2.88
2024-01-06T20:18:38.337Z,2.63
2024-01-06T20:23:35.538Z,2.75
2024-01-06T20:28:32.373Z,5.45
2024-01-06T20:33:34.803Z,3.17
2024-01-06T20:38:31.855Z,3.92
2024-01-06T20:43:28.633Z,5.63
2024-01-06T20:48:25.476Z,3.10
2024-01-06T20:53:22.319Z,2.60
2024-01-06T20:58:19.360Z,2.80
2024-01-06T21:03:16.410Z,3.00
2024-01-06T21:08:13.292Z,3.58
2024-01-06T21:13:10.125Z,3.40
2024-01-06T21:18:07.826Z,3.05
2024-01-06T21:23:05.465Z,3.28
2024-01-06T21:28:02.313Z,3.35
2024-01-06T21:33:02.363Z,3.60
2024-01-06T21:37:59.401Z,4.05
2024-01-06T21:42:56.407Z,3.63
2024-01-06T21:47:57.037Z,2.08
2024-01-06T21:52:53.896Z,3.17
2024-01-06T21:57:50.706Z,3.42
2024-01-06T22:02:52.366Z,3.78
2024-01-06T22:07:49.508Z,3.63
2024-01-06T22:12:46.348Z,3.88
2024-01-06T22:17:43.344Z,3.55
2024-01-06T22:22:40.234Z,4.18
2024-01-06T22:27:37.273Z,3.45
2024-01-06T22:32:34.194Z,3.28
2024-01-06T22:37:31.024Z,3.38
2024-01-06T22:42:27.876Z,3.05
2024-01-06T22:47:24.809Z,3.08
2024-01-06T22:52:21.808Z,2.63
2024-01-06T22:57:18.705Z,2.55
2024-01-06T23:02:15.698Z,3.63
2024-01-06T23:07:13.508Z,2.70
2024-01-06T23:12:10.634Z,2.97
2024-01-06T23:17:07.434Z,2.70
2024-01-06T23:22:04.697Z,2.38
2024-01-06T23:27:01.944Z,1.80
2024-01-06T23:31:58.836Z,1.55
2024-01-06T23:36:55.735Z,2.35
2024-01-06T23:41:53.001Z,2.10
2024-01-06T23:46:51.731Z,3.00
2024-01-06T23:51:48.568Z,2.17
2024-01-06T23:56:45.474Z,1.67
